Time,TemperatureF,DewpointF,PressureIn,WindDirection,WindDirectionDegrees,WindSpeedMPH,WindSpeedGustMPH,Humidity,HourlyPrecipIn,Conditions,Clouds,dailyrainin,SoftwareType,DateUTC
2013-02-18 00:04:00,12.9,2.0,29.67,West,277,3.0,-999.0,63,-99.99,,,0.00,weatherlink.com 1.10,2013-02-18 05:04:00,
2013-02-18 00:19:00,12.9,2.0,29.67,WNW,286,20.0,-999.0,63,-99.99,,,0.00,weatherlink.com 1.10,2013-02-18 05:19:00,
2013-02-18 00:34:00,12.8,3.0,29.68,SSW,198,6.0,-999.0,64,-99.99,,,0.00,weatherlink.com 1.10,2013-02-18 05:34:00,
2013-02-18 00:49:00,12.7,3.0,29.69,WSW,250,4.0,-999.0,64,-99.99,,,0.00,weatherlink.com 1.10,2013-02-18 05:49:00,
2013-02-18 01:19:00,12.6,3.0,29.70,WSW,244,7.0,-999.0,64,-99.99,,,0.00,weatherlink.com 1.10,2013-02-18 06:19:00,
2013-02-18 01:34:00,12.6,2.0,29.71,West,277,7.0,-999.0,63,-99.99,,,0.00,weatherlink.com 1.10,2013-02-18 06:34:00,
2013-02-18 01:49:00,12.6,2.0,29.72,NW,311,3.0,-999.0,63,-99.99,,,0.00,weatherlink.com 1.10,2013-02-18 06:49:00,
2013-02-18 03:50:00,11.9,1.0,29.77,SSE,159,3.0,-999.0,63,-99.99,,,0.00,weatherlink.com 1.10,2013-02-18 08:50:00,
2013-02-18 04:06:00,11.8,1.0,29.77,North,355,1.0,-999.0,63,-99.99,,,0.00,weatherlink.com 1.10,2013-02-18 09:06:00,
2013-02-18 04:21:00,11.8,1.0,29.79,SW,231,10.0,-999.0,63,-99.99,,,0.00,weatherlink.com 1.10,2013-02-18 09:21:00,
2013-02-18 04:36:00,11.6,2.0,29.79,NW,304,10.0,-999.0,64,-99.99,,,0.00,weatherlink.com 1.10,2013-02-18 09:36:00,
2013-02-18 04:51:00,11.6,2.0,29.81,West,279,6.0,-999.0,64,-99.99,,,0.00,weatherlink.com 1.10,2013-02-18 09:51:00,
2013-02-18 05:06:00,11.6,2.0,29.82,NNW,333,8.0,-999.0,64,-99.99,,,0.00,weatherlink.com 1.10,2013-02-18 10:06:00,
2013-02-18 05:21:00,11.6,2.0,29.83,West,277,10.0,-999.0,64,-99.99,,,0.00,weatherlink.com 1.10,2013-02-18 10:21:00,
2013-02-18 05:36:00,11.6,1.0,29.84,WNW,288,16.0,-999.0,63,-99.99,,,0.00,weatherlink.com 1.10,2013-02-18 10:36:00,
2013-02-18 05:51:00,11.6,1.0,29.86,West,279,10.0,-999.0,63,-99.99,,,0.00,weatherlink.com 1.10,2013-02-18 10:51:00,
2013-02-18 06:21:00,11.4,1.0,29.86,WSW,246,14.0,-999.0,63,-99.99,,,0.00,weatherlink.com 1.10,2013-02-18 11:21:00,
2013-02-18 06:37:00,11.4,1.0,29.88,WNW,290,2.0,-999.0,63,-99.99,,,0.00,weatherlink.com 1.10,2013-02-18 11:37:00,
2013-02-18 06:51:00,11.3,1.0,29.88,NNW,347,1.0,-999.0,63,-99.99,,,0.00,weatherlink.com 1.10,2013-02-18 11:51:00,
2013-02-18 07:07:00,11.2,1.0,29.88,NW,313,7.0,-999.0,63,-99.99,,,0.00,weatherlink.com 1.10,2013-02-18 12:07:00,
2013-02-18 07:22:00,11.7,1.0,29.90,NW,307,5.0,-999.0,62,-99.99,,,0.00,weatherlink.com 1.10,2013-02-18 12:22:00,
2013-02-18 07:38:00,12.0,1.0,29.91,WNW,299,1.0,-999.0,62,-99.99,,,0.00,weatherlink.com 1.10,2013-02-18 12:38:00,
2013-02-18 07:53:00,12.7,1.0,29.93,NW,310,6.0,-999.0,60,-99.99,,,0.00,weatherlink.com 1.10,2013-02-18 12:53:00,
2013-02-18 08:07:00,13.8,1.0,29.93,NW,311,0.0,-999.0,58,-99.99,,,0.00,weatherlink.com 1.10,2013-02-18 13:07:00,
2013-02-18 08:22:00,15.2,2.0,29.94,WNW,303,6.0,-999.0,56,-99.99,,,0.00,weatherlink.com 1.10,2013-02-18 13:22:00,
2013-02-18 08:38:00,16.2,2.0,29.95,NE,56,9.0,-999.0,54,-99.99,,,0.00,weatherlink.com 1.10,2013-02-18 13:38:00,
2013-02-18 08:53:00,16.7,3.0,29.93,North,360,10.0,-999.0,54,-99.99,,,0.00,weatherlink.com 1.10,2013-02-18 13:53:00,
2013-02-18 09:08:00,17.7,3.0,29.94,NNW,335,10.0,-999.0,52,-99.99,,,0.00,weatherlink.com 1.10,2013-02-18 14:08:00,
2013-02-18 09:23:00,18.8,3.0,29.94,NNW,333,8.0,-999.0,51,-99.99,,,0.00,weatherlink.com 1.10,2013-02-18 14:23:00,
2013-02-18 09:38:00,19.6,3.0,29.95,WNW,286,10.0,-999.0,49,-99.99,,,0.00,weatherlink.com 1.10,2013-02-18 14:38:00,
2013-02-18 09:54:00,21.0,4.0,29.94,WNW,302,7.0,-999.0,47,-99.99,,,0.00,weatherlink.com 1.10,2013-02-18 14:54:00,
2013-02-18 10:09:00,21.6,3.0,29.95,SSE,157,3.0,-999.0,44,-99.99,,,0.00,weatherlink.com 1.10,2013-02-18 15:09:00,
2013-02-18 10:23:00,22.7,3.0,29.95,WNW,303,2.0,-999.0,42,-99.99,,,0.00,weatherlink.com 1.10,2013-02-18 15:23:00,
2013-02-18 10:39:00,23.1,2.0,29.95,West,265,10.0,-999.0,40,-99.99,,,0.00,weatherlink.com 1.10,2013-02-18 15:39:00,
2013-02-18 10:54:00,24.6,1.0,29.95,WNW,296,4.0,-999.0,36,-99.99,,,0.00,weatherlink.com 1.10,2013-02-18 15:54:00,
2013-02-18 11:09:00,25.0,1.0,29.95,NNE,12,10.0,-999.0,36,-99.99,,,0.00,weatherlink.com 1.10,2013-02-18 16:09:00,
2013-02-18 11:24:00,25.8,1.0,29.95,WSW,245,11.0,-999.0,34,-99.99,,,0.00,weatherlink.com 1.10,2013-02-18 16:24:00,
2013-02-18 11:39:00,26.0,1.0,29.95,NNW,336,3.0,-999.0,34,-99.99,,,0.00,weatherlink.com 1.10,2013-02-18 16:39:00,
2013-02-18 11:55:00,26.3,1.0,29.95,NNE,32,4.0,-999.0,34,-99.99,,,0.00,weatherlink.com 1.10,2013-02-18 16:55:00,
2013-02-18 12:09:00,26.9,1.0,29.94,NW,311,9.0,-999.0,32,-99.99,,,0.00,weatherlink.com 1.10,2013-02-18 17:09:00,
2013-02-18 12:24:00,26.8,2.0,29.95,ENE,69,5.0,-999.0,34,-99.99,,,0.00,weatherlink.com 1.10,2013-02-18 17:24:00,
2013-02-18 12:39:00,27.0,1.0,29.95,NNW,339,7.0,-999.0,33,-99.99,,,0.00,weatherlink.com 1.10,2013-02-18 17:39:00,
2013-02-18 12:54:00,28.0,2.0,29.95,ENE,72,5.0,-999.0,32,-99.99,,,0.00,weatherlink.com 1.10,2013-02-18 17:54:00,
2013-02-18 13:11:00,27.9,1.0,29.95,NW,325,5.0,-999.0,31,-99.99,,,0.00,weatherlink.com 1.10,2013-02-18 18:11:00,
2013-02-18 13:25:00,28.1,1.0,29.95,ENE,57,7.0,-999.0,31,-99.99,,,0.00,weatherlink.com 1.10,2013-02-18 18:25:00,
2013-02-18 13:40:00,28.7,2.0,29.96,NW,323,3.0,-999.0,32,-99.99,,,0.00,weatherlink.com 1.10,2013-02-18 18:40:00,
2013-02-18 13:55:00,28.7,1.0,29.96,North,360,8.0,-999.0,30,-99.99,,,0.00,weatherlink.com 1.10,2013-02-18 18:55:00,
2013-02-18 14:10:00,28.3,2.0,29.96,North,5,5.0,-999.0,32,-99.99,,,0.00,weatherlink.com 1.10,2013-02-18 19:10:00,
2013-02-18 14:26:00,28.4,1.0,29.96,West,275,1.0,-999.0,31,-99.99,,,0.00,weatherlink.com 1.10,2013-02-18 19:26:00,
2013-02-18 14:41:00,28.9,2.0,29.98,WNW,294,7.0,-999.0,31,-99.99,,,0.00,weatherlink.com 1.10,2013-02-18 19:41:00,
2013-02-18 14:55:00,28.8,1.0,29.98,West,274,9.0,-999.0,30,-99.99,,,0.00,weatherlink.com 1.10,2013-02-18 19:55:00,
2013-02-18 15:11:00,28.7,0.0,29.99,WSW,252,2.0,-999.0,29,-99.99,,,0.00,weatherlink.com 1.10,2013-02-18 20:11:00,
2013-02-18 15:27:00,28.7,1.0,29.99,WNW,302,8.0,-999.0,30,-99.99,,,0.00,weatherlink.com 1.10,2013-02-18 20:27:00,
2013-02-18 15:42:00,28.7,1.0,30.00,West,277,9.0,-999.0,30,-99.99,,,0.00,weatherlink.com 1.10,2013-02-18 20:42:00,
2013-02-18 15:56:00,28.8,2.0,30.01,West,281,2.0,-999.0,31,-99.99,,,0.00,weatherlink.com 1.10,2013-02-18 20:56:00,
2013-02-18 16:12:00,28.4,0.0,30.02,WNW,302,2.0,-999.0,29,-99.99,,,0.00,weatherlink.com 1.10,2013-02-18 21:12:00,
2013-02-18 16:26:00,28.1,-1.0,30.03,WSW,246,2.0,-999.0,29,-99.99,,,0.00,weatherlink.com 1.10,2013-02-18 21:26:00,
2013-02-18 16:41:00,27.8,0.0,30.03,WSW,242,6.0,-999.0,30,-99.99,,,0.00,weatherlink.com 1.10,2013-02-18 21:41:00,
2013-02-18 16:57:00,27.3,-1.0,30.03,West,269,1.0,-999.0,30,-99.99,,,0.00,weatherlink.com 1.10,2013-02-18 21:57:00,
2013-02-18 17:12:00,26.9,1.0,30.03,SSW,211,3.0,-999.0,33,-99.99,,,0.00,weatherlink.com 1.10,2013-02-18 22:12:00,
2013-02-18 17:27:00,25.7,-1.0,30.04,WSW,240,6.0,-999.0,31,-99.99,,,0.00,weatherlink.com 1.10,2013-02-18 22:27:00,
2013-02-18 17:42:00,25.2,-2.0,30.05,WNW,284,5.0,-999.0,31,-99.99,,,0.00,weatherlink.com 1.10,2013-02-18 22:42:00,
2013-02-18 17:57:00,24.8,-1.0,30.06,WSW,245,8.0,-999.0,33,-99.99,,,0.00,weatherlink.com 1.10,2013-02-18 22:57:00,
2013-02-18 18:12:00,24.3,-2.0,30.05,WSW,256,8.0,-999.0,31,-99.99,,,0.00,weatherlink.com 1.10,2013-02-18 23:12:00,
2013-02-18 18:27:00,23.9,-2.0,30.06,WNW,288,5.0,-999.0,32,-99.99,,,0.00,weatherlink.com 1.10,2013-02-18 23:27:00,
2013-02-18 18:43:00,23.7,-1.0,30.06,West,281,4.0,-999.0,34,-99.99,,,0.00,weatherlink.com 1.10,2013-02-18 23:43:00,
2013-02-18 18:58:00,23.8,-1.0,30.07,West,259,5.0,-999.0,34,-99.99,,,0.00,weatherlink.com 1.10,2013-02-18 23:58:00,
2013-02-18 19:12:00,23.7,0.0,30.07,West,281,5.0,-999.0,35,-99.99,,,0.00,weatherlink.com 1.10,2013-02-19 00:12:00,
2013-02-18 19:28:00,23.4,-1.0,30.07,NNW,346,0.0,-999.0,35,-99.99,,,0.00,weatherlink.com 1.10,2013-02-19 00:28:00,
2013-02-18 19:42:00,22.8,1.0,30.07,NW,325,1.0,-999.0,39,-99.99,,,0.00,weatherlink.com 1.10,2013-02-19 00:42:00,
2013-02-18 19:58:00,22.4,0.0,30.08,West,277,0.0,-999.0,38,-99.99,,,0.00,weatherlink.com 1.10,2013-02-19 00:58:00,
2013-02-18 20:12:00,22.4,-1.0,30.08,West,264,1.0,-999.0,36,-99.99,,,0.00,weatherlink.com 1.10,2013-02-19 01:12:00,
2013-02-18 20:28:00,22.1,-1.0,30.08,WSW,238,2.0,-999.0,36,-99.99,,,0.00,weatherlink.com 1.10,2013-02-19 01:28:00,
2013-02-18 20:43:00,21.4,-1.0,30.09,WSW,255,6.0,-999.0,38,-99.99,,,0.00,weatherlink.com 1.10,2013-02-19 01:43:00,
2013-02-18 20:58:00,20.9,2.0,30.09,WNW,293,0.0,-999.0,43,-99.99,,,0.00,weatherlink.com 1.10,2013-02-19 01:58:00,
2013-02-18 21:13:00,20.9,0.0,30.09,WNW,292,10.0,-999.0,40,-99.99,,,0.00,weatherlink.com 1.10,2013-02-19 02:13:00,
2013-02-18 21:28:00,22.2,-1.0,30.09,SW,234,5.0,-999.0,36,-99.99,,,0.00,weatherlink.com 1.10,2013-02-19 02:28:00,
2013-02-18 21:43:00,22.8,-1.0,30.09,WSW,255,7.0,-999.0,36,-99.99,,,0.00,weatherlink.com 1.10,2013-02-19 02:43:00,
2013-02-18 21:58:00,22.7,-1.0,30.09,WSW,251,7.0,-999.0,36,-99.99,,,0.00,weatherlink.com 1.10,2013-02-19 02:58:00,
2013-02-18 22:29:00,22.0,-1.0,30.10,West,261,5.0,-999.0,36,-99.99,,,0.00,weatherlink.com 1.10,2013-02-19 03:29:00,
2013-02-18 22:44:00,21.3,0.0,30.10,WSW,244,1.0,-999.0,40,-99.99,,,0.00,weatherlink.com 1.10,2013-02-19 03:44:00,
2013-02-18 22:59:00,20.0,-1.0,30.11,West,262,3.0,-999.0,39,-99.99,,,0.00,weatherlink.com 1.10,2013-02-19 03:59:00,
2013-02-18 23:14:00,20.5,-1.0,30.11,West,276,3.0,-999.0,39,-99.99,,,0.00,weatherlink.com 1.10,2013-02-19 04:14:00,
2013-02-18 23:29:00,20.1,-1.0,30.10,WNW,294,2.0,-999.0,40,-99.99,,,0.00,weatherlink.com 1.10,2013-02-19 04:29:00,
2013-02-18 23:44:00,19.9,1.0,30.11,WSW,254,0.0,-999.0,44,-99.99,,,0.00,weatherlink.com 1.10,2013-02-19 04:44:00,
2013-02-18 23:59:00,18.9,3.0,30.12,WSW,254,1.0,-999.0,50,-99.99,,,0.00,weatherlink.com 1.10,2013-02-19 04:59:00,